sensor_id;sensor_type;location;lat;lon;timestamp;pressure;altitude;pressure_sealevel;temperature;humidity
46922;BME280;44039;48.336;10.454;2022-07-29T00:00:47;95846.44;;;18.45;100.00
46922;BME280;44039;48.336;10.454;2022-07-29T00:03:34;95829.91;;;18.43;100.00
46922;BME280;44039;48.336;10.454;2022-07-29T00:06:25;95826.09;;;18.63;100.00
46922;BME280;44039;48.336;10.454;2022-07-29T00:09:12;95824.22;;;18.55;100.00
46922;BME280;44039;48.336;10.454;2022-07-29T00:12:00;95840.72;;;18.49;100.00
46922;BME280;44039;48.336;10.454;2022-07-29T00:14:47;95844.63;;;18.00;100.00
46922;BME280;44039;48.336;10.454;2022-07-29T00:17:34;95843.03;;;17.89;100.00
46922;BME280;44039;48.336;10.454;2022-07-29T00:20:21;95843.13;;;18.25;100.00
46922;BME280;44039;48.336;10.454;2022-07-29T00:23:09;95835.88;;;17.99;100.00
46922;BME280;44039;48.336;10.454;2022-07-29T00:25:59;95841.03;;;17.73;100.00
46922;BME280;44039;48.336;10.454;2022-07-29T00:28:46;95833.72;;;18.30;100.00
46922;BME280;44039;48.336;10.454;2022-07-29T00:31:33;95831.56;;;17.81;100.00
46922;BME280;44039;48.336;10.454;2022-07-29T00:34:20;95825.34;;;17.62;100.00
46922;BME280;44039;48.336;10.454;2022-07-29T00:37:33;95834.94;;;17.73;100.00
46922;BME280;44039;48.336;10.454;2022-07-29T00:40:21;95834.56;;;17.86;100.00
46922;BME280;44039;48.336;10.454;2022-07-29T00:43:10;95831.00;;;17.77;100.00
46922;BME280;44039;48.336;10.454;2022-07-29T00:45:57;95828.22;;;17.69;100.00
46922;BME280;44039;48.336;10.454;2022-07-29T00:48:44;95827.97;;;17.62;100.00
46922;BME280;44039;48.336;10.454;2022-07-29T00:51:31;95821.41;;;17.76;100.00
46922;BME280;44039;48.336;10.454;2022-07-29T00:54:19;95822.41;;;17.75;100.00
46922;BME280;44039;48.336;10.454;2022-07-29T00:57:07;95812.38;;;17.69;100.00
46922;BME280;44039;48.336;10.454;2022-07-29T00:59:54;95798.16;;;18.07;100.00
46922;BME280;44039;48.336;10.454;2022-07-29T01:02:43;95787.16;;;18.29;100.00
46922;BME280;44039;48.336;10.454;2022-07-29T01:05:30;95794.84;;;18.23;100.00
46922;BME280;44039;48.336;10.454;2022-07-29T01:08:37;95799.13;;;17.88;100.00
46922;BME280;44039;48.336;10.454;2022-07-29T01:11:24;95798.41;;;17.59;100.00
46922;BME280;44039;48.336;10.454;2022-07-29T01:14:12;95793.84;;;17.88;100.00
46922;BME280;44039;48.336;10.454;2022-07-29T01:17:09;95787.66;;;17.97;100.00
46922;BME280;44039;48.336;10.454;2022-07-29T01:20:25;95780.03;;;17.67;100.00
46922;BME280;44039;48.336;10.454;2022-07-29T01:29:38;95770.28;;;17.77;100.00
46922;BME280;44039;48.336;10.454;2022-07-29T01:32:33;95759.09;;;17.56;100.00
46922;BME280;44039;48.336;10.454;2022-07-29T01:35:29;95759.72;;;17.77;100.00
46922;BME280;44039;48.336;10.454;2022-07-29T01:38:21;95763.88;;;17.70;100.00
46922;BME280;44039;48.336;10.454;2022-07-29T01:41:12;95760.19;;;17.90;100.00
46922;BME280;44039;48.336;10.454;2022-07-29T01:47:18;95755.16;;;17.42;100.00
46922;BME280;44039;48.336;10.454;2022-07-29T01:50:10;95750.44;;;17.08;100.00
46922;BME280;44039;48.336;10.454;2022-07-29T01:53:02;95748.25;;;17.04;100.00
46922;BME280;44039;48.336;10.454;2022-07-29T01:55:51;95739.81;;;17.28;100.00
46922;BME280;44039;48.336;10.454;2022-07-29T01:58:41;95741.22;;;17.22;100.00
46922;BME280;44039;48.336;10.454;2022-07-29T02:01:31;95742.91;;;17.13;100.00
46922;BME280;44039;48.336;10.454;2022-07-29T02:04:20;95745.31;;;17.07;100.00
46922;BME280;44039;48.336;10.454;2022-07-29T02:07:21;95739.00;;;17.17;100.00
46922;BME280;44039;48.336;10.454;2022-07-29T02:10:10;95737.84;;;17.30;100.00
46922;BME280;44039;48.336;10.454;2022-07-29T02:12:59;95732.91;;;17.17;100.00
46922;BME280;44039;48.336;10.454;2022-07-29T02:15:48;95739.25;;;17.24;100.00
46922;BME280;44039;48.336;10.454;2022-07-29T02:18:37;95736.13;;;17.11;100.00
46922;BME280;44039;48.336;10.454;2022-07-29T02:21:26;95733.72;;;17.17;100.00
46922;BME280;44039;48.336;10.454;2022-07-29T02:24:15;95730.75;;;17.03;100.00
46922;BME280;44039;48.336;10.454;2022-07-29T02:27:05;95723.84;;;17.57;100.00
46922;BME280;44039;48.336;10.454;2022-07-29T02:29:55;95725.25;;;17.69;100.00
46922;BME280;44039;48.336;10.454;2022-07-29T02:32:44;95727.94;;;17.41;100.00
46922;BME280;44039;48.336;10.454;2022-07-29T02:35:34;95727.25;;;17.12;100.00
46922;BME280;44039;48.336;10.454;2022-07-29T02:38:22;95729.47;;;17.07;100.00
46922;BME280;44039;48.336;10.454;2022-07-29T02:41:30;95721.41;;;17.18;100.00
46922;BME280;44039;48.336;10.454;2022-07-29T02:44:21;95723.06;;;17.09;100.00
46922;BME280;44039;48.336;10.454;2022-07-29T02:50:07;95714.28;;;17.46;100.00
46922;BME280;44039;48.336;10.454;2022-07-29T02:53:00;95712.53;;;17.64;100.00
46922;BME280;44039;48.336;10.454;2022-07-29T02:55:59;95707.06;;;17.93;100.00
46922;BME280;44039;48.336;10.454;2022-07-29T02:58:54;95709.66;;;18.03;100.00
46922;BME280;44039;48.336;10.454;2022-07-29T03:01:43;95711.28;;;17.86;100.00
46922;BME280;44039;48.336;10.454;2022-07-29T03:04:32;95708.34;;;17.71;100.00
46922;BME280;44039;48.336;10.454;2022-07-29T03:07:21;95714.69;;;17.69;100.00
46922;BME280;44039;48.336;10.454;2022-07-29T03:10:08;95711.09;;;17.70;100.00
46922;BME280;44039;48.336;10.454;2022-07-29T03:13:00;95708.75;;;17.94;100.00
46922;BME280;44039;48.336;10.454;2022-07-29T03:15:47;95708.66;;;18.04;100.00
46922;BME280;44039;48.336;10.454;2022-07-29T03:18:35;95713.09;;;17.86;100.00
46922;BME280;44039;48.336;10.454;2022-07-29T03:21:24;95722.53;;;17.61;100.00
46922;BME280;44039;48.336;10.454;2022-07-29T03:24:24;95720.31;;;17.38;100.00
46922;BME280;44039;48.336;10.454;2022-07-29T03:27:11;95719.63;;;17.36;100.00
46922;BME280;44039;48.336;10.454;2022-07-29T03:29:58;95723.06;;;17.19;100.00
46922;BME280;44039;48.336;10.454;2022-07-29T03:32:45;95718.88;;;17.16;100.00
46922;BME280;44039;48.336;10.454;2022-07-29T03:35:32;95728.03;;;17.22;100.00
46922;BME280;44039;48.336;10.454;2022-07-29T03:38:20;95721.88;;;17.04;100.00
46922;BME280;44039;48.336;10.454;2022-07-29T03:41:12;95726.88;;;16.97;100.00
46922;BME280;44039;48.336;10.454;2022-07-29T03:44:01;95722.13;;;17.01;100.00
46922;BME280;44039;48.336;10.454;2022-07-29T03:46:50;95727.97;;;17.04;100.00
46922;BME280;44039;48.336;10.454;2022-07-29T03:49:39;95732.78;;;17.09;100.00
46922;BME280;44039;48.336;10.454;2022-07-29T03:52:27;95736.25;;;17.09;100.00
46922;BME280;44039;48.336;10.454;2022-07-29T03:55:15;95729.19;;;17.10;100.00
46922;BME280;44039;48.336;10.454;2022-07-29T03:58:03;95731.81;;;17.10;100.00
46922;BME280;44039;48.336;10.454;2022-07-29T04:00:50;95735.13;;;16.75;100.00
46922;BME280;44039;48.336;10.454;2022-07-29T04:03:38;95730.50;;;16.86;100.00
46922;BME280;44039;48.336;10.454;2022-07-29T04:06:25;95733.25;;;17.04;100.00
46922;BME280;44039;48.336;10.454;2022-07-29T04:09:12;95747.91;;;16.79;100.00
46922;BME280;44039;48.336;10.454;2022-07-29T04:12:00;95741.81;;;16.69;100.00
46922;BME280;44039;48.336;10.454;2022-07-29T04:14:50;95749.16;;;16.75;100.00
46922;BME280;44039;48.336;10.454;2022-07-29T04:17:37;95755.28;;;17.13;100.00
46922;BME280;44039;48.336;10.454;2022-07-29T04:20:24;95762.25;;;17.04;100.00
46922;BME280;44039;48.336;10.454;2022-07-29T04:23:11;95751.47;;;17.25;100.00
46922;BME280;44039;48.336;10.454;2022-07-29T04:25:58;95762.41;;;17.03;100.00
46922;BME280;44039;48.336;10.454;2022-07-29T04:28:48;95772.81;;;17.04;100.00
46922;BME280;44039;48.336;10.454;2022-07-29T04:31:35;95772.84;;;16.94;100.00
46922;BME280;44039;48.336;10.454;2022-07-29T04:34:22;95779.19;;;17.02;100.00
46922;BME280;44039;48.336;10.454;2022-07-29T04:37:13;95779.22;;;16.92;100.00
46922;BME280;44039;48.336;10.454;2022-07-29T04:40:00;95786.19;;;16.35;100.00
46922;BME280;44039;48.336;10.454;2022-07-29T04:42:48;95797.41;;;16.47;100.00
46922;BME280;44039;48.336;10.454;2022-07-29T04:45:35;95793.22;;;16.63;100.00
46922;BME280;44039;48.336;10.454;2022-07-29T04:48:22;95796.94;;;17.00;100.00
46922;BME280;44039;48.336;10.454;2022-07-29T04:51:15;95794.38;;;17.27;100.00
46922;BME280;44039;48.336;10.454;2022-07-29T04:54:02;95797.06;;;17.08;100.00
46922;BME280;44039;48.336;10.454;2022-07-29T04:56:49;95796.63;;;17.22;100.00
46922;BME280;44039;48.336;10.454;2022-07-29T04:59:36;95798.41;;;17.21;100.00
46922;BME280;44039;48.336;10.454;2022-07-29T05:02:23;95804.28;;;17.15;100.00
46922;BME280;44039;48.336;10.454;2022-07-29T05:05:10;95800.16;;;17.03;100.00
46922;BME280;44039;48.336;10.454;2022-07-29T05:08:00;95797.91;;;18.00;100.00
46922;BME280;44039;48.336;10.454;2022-07-29T05:10:47;95788.25;;;17.91;100.00
46922;BME280;44039;48.336;10.454;2022-07-29T05:13:34;95790.28;;;17.70;100.00
46922;BME280;44039;48.336;10.454;2022-07-29T05:16:31;95792.59;;;18.10;100.00
46922;BME280;44039;48.336;10.454;2022-07-29T05:19:19;95793.41;;;18.82;100.00
46922;BME280;44039;48.336;10.454;2022-07-29T05:22:06;95795.63;;;18.69;100.00
46922;BME280;44039;48.336;10.454;2022-07-29T05:24:53;95792.91;;;18.43;100.00
46922;BME280;44039;48.336;10.454;2022-07-29T05:27:40;95794.44;;;19.41;100.00
46922;BME280;44039;48.336;10.454;2022-07-29T05:30:27;95796.97;;;19.85;100.00
46922;BME280;44039;48.336;10.454;2022-07-29T05:33:14;95797.34;;;20.06;100.00
46922;BME280;44039;48.336;10.454;2022-07-29T05:36:21;95792.94;;;20.39;100.00
46922;BME280;44039;48.336;10.454;2022-07-29T05:39:08;95802.22;;;20.35;100.00
46922;BME280;44039;48.336;10.454;2022-07-29T05:41:55;95799.28;;;19.20;100.00
46922;BME280;44039;48.336;10.454;2022-07-29T05:44:43;95809.22;;;19.86;100.00
46922;BME280;44039;48.336;10.454;2022-07-29T05:47:30;95808.72;;;19.82;100.00
46922;BME280;44039;48.336;10.454;2022-07-29T05:50:17;95803.75;;;20.46;100.00
46922;BME280;44039;48.336;10.454;2022-07-29T05:53:04;95810.34;;;20.42;100.00
46922;BME280;44039;48.336;10.454;2022-07-29T05:56:06;95797.50;;;20.55;98.86
46922;BME280;44039;48.336;10.454;2022-07-29T05:58:54;95797.97;;;20.50;98.45
46922;BME280;44039;48.336;10.454;2022-07-29T06:01:41;95797.56;;;20.21;93.88
46922;BME280;44039;48.336;10.454;2022-07-29T06:04:28;95806.28;;;20.80;91.66
46922;BME280;44039;48.336;10.454;2022-07-29T06:07:15;95804.75;;;21.82;88.19
46922;BME280;44039;48.336;10.454;2022-07-29T06:10:03;95794.38;;;21.56;77.45
46922;BME280;44039;48.336;10.454;2022-07-29T06:12:50;95797.78;;;21.09;79.08
46922;BME280;44039;48.336;10.454;2022-07-29T06:15:37;95800.56;;;21.24;79.43
46922;BME280;44039;48.336;10.454;2022-07-29T06:18:25;95798.13;;;21.78;76.91
46922;BME280;44039;48.336;10.454;2022-07-29T06:21:12;95796.47;;;22.39;73.83
46922;BME280;44039;48.336;10.454;2022-07-29T06:24:00;95796.31;;;22.17;71.17
46922;BME280;44039;48.336;10.454;2022-07-29T06:26:47;95794.88;;;22.75;68.16
46922;BME280;44039;48.336;10.454;2022-07-29T06:29:34;95800.78;;;22.94;71.46
46922;BME280;44039;48.336;10.454;2022-07-29T06:32:21;95808.75;;;23.46;76.11
46922;BME280;44039;48.336;10.454;2022-07-29T06:35:13;95800.50;;;22.35;66.94
46922;BME280;44039;48.336;10.454;2022-07-29T06:38:20;95803.47;;;21.61;72.12
46922;BME280;44039;48.336;10.454;2022-07-29T06:41:19;95801.91;;;22.23;71.82
46922;BME280;44039;48.336;10.454;2022-07-29T06:44:06;95798.97;;;22.40;70.71
46922;BME280;44039;48.336;10.454;2022-07-29T06:46:53;95803.13;;;23.26;70.54
46922;BME280;44039;48.336;10.454;2022-07-29T06:49:41;95803.28;;;22.41;67.48
46922;BME280;44039;48.336;10.454;2022-07-29T06:52:29;95804.31;;;23.24;65.00
46922;BME280;44039;48.336;10.454;2022-07-29T06:55:16;95802.53;;;24.20;64.87
46922;BME280;44039;48.336;10.454;2022-07-29T06:58:11;95816.19;;;22.22;69.38
46922;BME280;44039;48.336;10.454;2022-07-29T07:01:01;95811.75;;;22.68;72.25
46922;BME280;44039;48.336;10.454;2022-07-29T07:03:49;95817.09;;;22.91;69.72
46922;BME280;44039;48.336;10.454;2022-07-29T07:06:37;95813.50;;;23.36;68.83
46922;BME280;44039;48.336;10.454;2022-07-29T07:09:25;95825.88;;;22.68;70.09
46922;BME280;44039;48.336;10.454;2022-07-29T07:12:25;95831.09;;;21.44;76.11
46922;BME280;44039;48.336;10.454;2022-07-29T07:15:12;95822.63;;;22.35;75.46
46922;BME280;44039;48.336;10.454;2022-07-29T07:18:00;95836.22;;;22.40;77.60
46922;BME280;44039;48.336;10.454;2022-07-29T07:20:47;95833.28;;;21.00;76.98
46922;BME280;44039;48.336;10.454;2022-07-29T07:23:34;95838.75;;;20.90;83.01
46922;BME280;44039;48.336;10.454;2022-07-29T07:26:21;95851.09;;;20.24;85.90
46922;BME280;44039;48.336;10.454;2022-07-29T07:29:08;95853.03;;;20.14;90.05
46922;BME280;44039;48.336;10.454;2022-07-29T07:31:57;95830.28;;;20.62;85.14
46922;BME280;44039;48.336;10.454;2022-07-29T07:34:46;95843.09;;;20.16;88.52
46922;BME280;44039;48.336;10.454;2022-07-29T07:37:34;95841.44;;;20.15;89.59
46922;BME280;44039;48.336;10.454;2022-07-29T07:40:21;95835.84;;;20.26;89.16
46922;BME280;44039;48.336;10.454;2022-07-29T07:43:08;95843.88;;;20.00;88.84
46922;BME280;44039;48.336;10.454;2022-07-29T07:45:55;95844.31;;;20.38;89.24
46922;BME280;44039;48.336;10.454;2022-07-29T07:48:42;95839.59;;;20.08;88.44
46922;BME280;44039;48.336;10.454;2022-07-29T07:51:29;95842.63;;;20.29;87.50
46922;BME280;44039;48.336;10.454;2022-07-29T07:54:17;95848.09;;;20.27;89.15
46922;BME280;44039;48.336;10.454;2022-07-29T07:57:06;95838.22;;;20.54;85.72
46922;BME280;44039;48.336;10.454;2022-07-29T07:59:53;95836.09;;;20.74;83.83
46922;BME280;44039;48.336;10.454;2022-07-29T08:02:41;95840.63;;;20.23;87.16
46922;BME280;44039;48.336;10.454;2022-07-29T08:05:29;95838.94;;;20.56;86.30
46922;BME280;44039;48.336;10.454;2022-07-29T08:08:17;95844.47;;;20.37;88.68
46922;BME280;44039;48.336;10.454;2022-07-29T08:11:04;95838.28;;;20.70;89.13
46922;BME280;44039;48.336;10.454;2022-07-29T08:13:55;95833.94;;;21.18;83.29
46922;BME280;44039;48.336;10.454;2022-07-29T08:16:42;95840.59;;;20.73;88.50
46922;BME280;44039;48.336;10.454;2022-07-29T08:19:30;95830.41;;;21.58;83.21
46922;BME280;44039;48.336;10.454;2022-07-29T08:22:16;95840.56;;;20.57;85.37
46922;BME280;44039;48.336;10.454;2022-07-29T08:25:04;95831.78;;;21.14;82.34
46922;BME280;44039;48.336;10.454;2022-07-29T08:27:51;95842.59;;;20.96;86.71
46922;BME280;44039;48.336;10.454;2022-07-29T08:30:38;95849.38;;;20.82;94.90
46922;BME280;44039;48.336;10.454;2022-07-29T08:33:25;95845.38;;;21.43;88.98
46922;BME280;44039;48.336;10.454;2022-07-29T08:36:12;95819.53;;;23.68;70.24
46922;BME280;44039;48.336;10.454;2022-07-29T08:39:00;95826.75;;;22.84;75.47
46922;BME280;44039;48.336;10.454;2022-07-29T08:41:48;95834.84;;;21.74;77.91
46922;BME280;44039;48.336;10.454;2022-07-29T08:44:44;95833.69;;;22.16;75.99
46922;BME280;44039;48.336;10.454;2022-07-29T08:47:31;95815.81;;;23.54;69.08
46922;BME280;44039;48.336;10.454;2022-07-29T08:50:18;95813.44;;;25.18;60.67
46922;BME280;44039;48.336;10.454;2022-07-29T08:53:07;95817.50;;;24.72;63.57
46922;BME280;44039;48.336;10.454;2022-07-29T08:55:57;95828.81;;;24.37;68.05
46922;BME280;44039;48.336;10.454;2022-07-29T08:58:47;95803.06;;;25.37;60.18
46922;BME280;44039;48.336;10.454;2022-07-29T09:01:38;95810.03;;;25.31;61.20
46922;BME280;44039;48.336;10.454;2022-07-29T09:04:33;95809.94;;;25.46;61.10
46922;BME280;44039;48.336;10.454;2022-07-29T09:07:21;95821.34;;;25.68;62.41
46922;BME280;44039;48.336;10.454;2022-07-29T09:10:08;95811.06;;;25.93;57.62
46922;BME280;44039;48.336;10.454;2022-07-29T09:12:55;95828.75;;;25.31;63.51
46922;BME280;44039;48.336;10.454;2022-07-29T09:15:44;95817.75;;;26.17;61.83
46922;BME280;44039;48.336;10.454;2022-07-29T09:18:42;95804.63;;;26.35;57.94
46922;BME280;44039;48.336;10.454;2022-07-29T09:21:40;95804.94;;;27.66;54.05
46922;BME280;44039;48.336;10.454;2022-07-29T09:24:46;95812.56;;;26.63;56.31
46922;BME280;44039;48.336;10.454;2022-07-29T09:27:34;95815.91;;;26.24;58.21
46922;BME280;44039;48.336;10.454;2022-07-29T09:30:22;95811.56;;;26.77;56.74
46922;BME280;44039;48.336;10.454;2022-07-29T09:33:17;95822.00;;;26.46;62.26
46922;BME280;44039;48.336;10.454;2022-07-29T09:36:06;95815.06;;;26.17;61.54
46922;BME280;44039;48.336;10.454;2022-07-29T09:39:00;95790.16;;;28.60;52.25
46922;BME280;44039;48.336;10.454;2022-07-29T09:41:53;95801.25;;;26.61;55.38
46922;BME280;44039;48.336;10.454;2022-07-29T09:44:47;95796.53;;;27.29;54.56
46922;BME280;44039;48.336;10.454;2022-07-29T09:47:46;95796.09;;;26.73;54.54
46922;BME280;44039;48.336;10.454;2022-07-29T09:50:39;95798.53;;;26.68;55.01
46922;BME280;44039;48.336;10.454;2022-07-29T09:53:36;95799.38;;;28.77;47.83
46922;BME280;44039;48.336;10.454;2022-07-29T09:56:41;95805.66;;;27.15;51.28
46922;BME280;44039;48.336;10.454;2022-07-29T09:59:28;95806.34;;;26.56;54.84
46922;BME280;44039;48.336;10.454;2022-07-29T10:02:15;95814.72;;;25.85;59.77
46922;BME280;44039;48.336;10.454;2022-07-29T10:05:23;95807.66;;;26.19;55.12
46922;BME280;44039;48.336;10.454;2022-07-29T10:08:11;95809.91;;;26.22;56.72
46922;BME280;44039;48.336;10.454;2022-07-29T10:11:11;95814.28;;;26.23;58.69
46922;BME280;44039;48.336;10.454;2022-07-29T10:14:01;95811.50;;;26.03;56.07
46922;BME280;44039;48.336;10.454;2022-07-29T10:16:49;95812.09;;;24.86;59.63
46922;BME280;44039;48.336;10.454;2022-07-29T10:19:37;95800.25;;;25.73;57.60
46922;BME280;44039;48.336;10.454;2022-07-29T10:22:25;95795.69;;;27.62;54.49
46922;BME280;44039;48.336;10.454;2022-07-29T10:25:32;95772.28;;;29.60;47.07
46922;BME280;44039;48.336;10.454;2022-07-29T10:28:19;95771.31;;;28.28;48.36
46922;BME280;44039;48.336;10.454;2022-07-29T10:31:08;95773.72;;;28.81;48.13
46922;BME280;44039;48.336;10.454;2022-07-29T10:37:05;95776.72;;;27.70;50.14
46922;BME280;44039;48.336;10.454;2022-07-29T10:43:18;95790.66;;;24.01;59.23
46922;BME280;44039;48.336;10.454;2022-07-29T10:46:06;95787.78;;;23.58;59.54
46922;BME280;44039;48.336;10.454;2022-07-29T10:49:15;95800.22;;;23.80;61.10
46922;BME280;44039;48.336;10.454;2022-07-29T10:52:04;95787.88;;;24.45;58.61
46922;BME280;44039;48.336;10.454;2022-07-29T10:54:52;95797.09;;;23.77;61.95
46922;BME280;44039;48.336;10.454;2022-07-29T10:58:34;95801.13;;;23.58;65.64
46922;BME280;44039;48.336;10.454;2022-07-29T11:01:30;95782.94;;;24.63;59.96
46922;BME280;44039;48.336;10.454;2022-07-29T11:07:30;95765.34;;;25.18;56.73
46922;BME280;44039;48.336;10.454;2022-07-29T11:10:32;95748.63;;;27.79;48.95
46922;BME280;44039;48.336;10.454;2022-07-29T11:16:59;95767.81;;;25.89;55.22
46922;BME280;44039;48.336;10.454;2022-07-29T11:19:48;95759.38;;;26.40;50.23
46922;BME280;44039;48.336;10.454;2022-07-29T11:22:38;95749.97;;;26.03;47.08
46922;BME280;44039;48.336;10.454;2022-07-29T11:25:33;95760.34;;;25.43;50.56
46922;BME280;44039;48.336;10.454;2022-07-29T11:31:44;95773.28;;;24.90;58.40
46922;BME280;44039;48.336;10.454;2022-07-29T11:34:33;95769.81;;;25.39;54.42
46922;BME280;44039;48.336;10.454;2022-07-29T11:37:21;95772.69;;;25.44;55.12
46922;BME280;44039;48.336;10.454;2022-07-29T11:40:15;95769.84;;;25.18;54.54
46922;BME280;44039;48.336;10.454;2022-07-29T11:43:04;95775.34;;;25.10;54.73
46922;BME280;44039;48.336;10.454;2022-07-29T11:45:53;95765.63;;;24.81;52.82
46922;BME280;44039;48.336;10.454;2022-07-29T11:48:43;95769.91;;;25.25;51.94
46922;BME280;44039;48.336;10.454;2022-07-29T11:51:31;95761.63;;;25.47;50.96
46922;BME280;44039;48.336;10.454;2022-07-29T11:54:39;95754.25;;;25.56;49.00
46922;BME280;44039;48.336;10.454;2022-07-29T11:57:47;95750.47;;;25.44;48.01
46922;BME280;44039;48.336;10.454;2022-07-29T12:00:56;95776.84;;;24.98;53.59
46922;BME280;44039;48.336;10.454;2022-07-29T12:04:02;95774.53;;;24.09;53.49
46922;BME280;44039;48.336;10.454;2022-07-29T12:06:54;95761.09;;;24.17;53.07
46922;BME280;44039;48.336;10.454;2022-07-29T12:09:51;95755.16;;;24.58;53.00
46922;BME280;44039;48.336;10.454;2022-07-29T12:12:42;95745.69;;;24.77;52.72
46922;BME280;44039;48.336;10.454;2022-07-29T12:15:38;95745.03;;;24.53;54.06
46922;BME280;44039;48.336;10.454;2022-07-29T12:18:33;95755.75;;;24.17;53.09
46922;BME280;44039;48.336;10.454;2022-07-29T12:21:20;95747.81;;;24.88;52.80
46922;BME280;44039;48.336;10.454;2022-07-29T12:24:11;95753.91;;;24.54;54.08
46922;BME280;44039;48.336;10.454;2022-07-29T12:26:59;95751.16;;;24.11;53.44
46922;BME280;44039;48.336;10.454;2022-07-29T12:29:58;95754.66;;;24.69;55.49
46922;BME280;44039;48.336;10.454;2022-07-29T12:32:48;95762.44;;;23.77;57.32
46922;BME280;44039;48.336;10.454;2022-07-29T12:35:35;95754.09;;;24.16;54.09
46922;BME280;44039;48.336;10.454;2022-07-29T12:38:22;95747.97;;;24.22;53.64
46922;BME280;44039;48.336;10.454;2022-07-29T12:41:10;95766.03;;;23.69;58.16
46922;BME280;44039;48.336;10.454;2022-07-29T12:43:57;95769.50;;;23.25;58.73
46922;BME280;44039;48.336;10.454;2022-07-29T12:46:44;95759.03;;;23.24;57.26
46922;BME280;44039;48.336;10.454;2022-07-29T12:49:35;95763.75;;;22.99;60.15
46922;BME280;44039;48.336;10.454;2022-07-29T12:55:11;95759.81;;;23.98;55.61
46922;BME280;44039;48.336;10.454;2022-07-29T12:57:58;95766.94;;;23.76;56.52
46922;BME280;44039;48.336;10.454;2022-07-29T13:00:45;95776.41;;;23.79;59.70
46922;BME280;44039;48.336;10.454;2022-07-29T13:03:53;95779.16;;;24.00;58.69
46922;BME280;44039;48.336;10.454;2022-07-29T13:06:44;95771.94;;;23.65;58.88
46922;BME280;44039;48.336;10.454;2022-07-29T13:09:42;95756.94;;;24.72;55.46
46922;BME280;44039;48.336;10.454;2022-07-29T13:12:29;95776.88;;;23.68;62.41
46922;BME280;44039;48.336;10.454;2022-07-29T13:15:16;95778.97;;;24.02;62.76
46922;BME280;44039;48.336;10.454;2022-07-29T13:18:04;95776.94;;;23.89;59.92
46922;BME280;44039;48.336;10.454;2022-07-29T13:20:51;95766.91;;;23.91;60.31
46922;BME280;44039;48.336;10.454;2022-07-29T13:23:38;95768.94;;;23.89;59.75
46922;BME280;44039;48.336;10.454;2022-07-29T13:26:25;95767.38;;;24.95;57.42
46922;BME280;44039;48.336;10.454;2022-07-29T13:29:12;95757.38;;;26.88;51.43
46922;BME280;44039;48.336;10.454;2022-07-29T13:31:59;95754.88;;;27.53;49.86
46922;BME280;44039;48.336;10.454;2022-07-29T13:34:47;95750.56;;;26.73;49.13
46922;BME280;44039;48.336;10.454;2022-07-29T13:37:35;95744.19;;;27.20;46.64
46922;BME280;44039;48.336;10.454;2022-07-29T13:40:25;95741.28;;;26.82;48.39
46922;BME280;44039;48.336;10.454;2022-07-29T13:43:12;95748.91;;;27.38;48.41
46922;BME280;44039;48.336;10.454;2022-07-29T13:45:59;95745.81;;;26.81;48.99
46922;BME280;44039;48.336;10.454;2022-07-29T13:48:46;95745.59;;;26.50;50.43
46922;BME280;44039;48.336;10.454;2022-07-29T13:51:34;95719.09;;;28.31;45.27
46922;BME280;44039;48.336;10.454;2022-07-29T13:54:21;95719.25;;;26.47;45.68
46922;BME280;44039;48.336;10.454;2022-07-29T13:57:09;95708.88;;;28.46;43.92
46922;BME280;44039;48.336;10.454;2022-07-29T13:59:57;95690.72;;;29.59;39.62
46922;BME280;44039;48.336;10.454;2022-07-29T14:02:44;95694.09;;;28.87;41.46
46922;BME280;44039;48.336;10.454;2022-07-29T14:05:31;95705.44;;;27.03;43.98
46922;BME280;44039;48.336;10.454;2022-07-29T14:08:19;95697.19;;;28.34;43.89
46922;BME280;44039;48.336;10.454;2022-07-29T14:11:06;95691.25;;;29.50;40.60
46922;BME280;44039;48.336;10.454;2022-07-29T14:13:53;95722.53;;;26.95;47.80
46922;BME280;44039;48.336;10.454;2022-07-29T14:16:40;95719.88;;;26.62;48.30
46922;BME280;44039;48.336;10.454;2022-07-29T14:19:37;95722.31;;;26.83;47.31
46922;BME280;44039;48.336;10.454;2022-07-29T14:22:25;95730.44;;;26.09;50.21
46922;BME280;44039;48.336;10.454;2022-07-29T14:25:12;95734.25;;;25.39;51.61
46922;BME280;44039;48.336;10.454;2022-07-29T14:28:01;95744.78;;;25.88;51.99
46922;BME280;44039;48.336;10.454;2022-07-29T14:30:48;95739.16;;;26.31;48.83
46922;BME280;44039;48.336;10.454;2022-07-29T14:33:35;95749.25;;;24.90;53.03
46922;BME280;44039;48.336;10.454;2022-07-29T14:36:22;95755.81;;;23.14;56.17
46922;BME280;44039;48.336;10.454;2022-07-29T14:39:09;95781.59;;;23.13;56.70
46922;BME280;44039;48.336;10.454;2022-07-29T14:41:56;95778.69;;;23.52;58.09
46922;BME280;44039;48.336;10.454;2022-07-29T14:44:43;95780.69;;;23.21;59.11
46922;BME280;44039;48.336;10.454;2022-07-29T14:47:32;95780.34;;;23.53;58.28
46922;BME280;44039;48.336;10.454;2022-07-29T14:50:19;95772.00;;;22.89;55.19
46922;BME280;44039;48.336;10.454;2022-07-29T14:53:17;95772.50;;;22.93;55.07
46922;BME280;44039;48.336;10.454;2022-07-29T14:56:04;95775.16;;;22.70;55.95
46922;BME280;44039;48.336;10.454;2022-07-29T14:59:11;95784.44;;;22.97;56.49
46922;BME280;44039;48.336;10.454;2022-07-29T15:01:58;95785.88;;;22.99;55.30
46922;BME280;44039;48.336;10.454;2022-07-29T15:04:46;95778.19;;;22.82;53.38
46922;BME280;44039;48.336;10.454;2022-07-29T15:07:34;95781.00;;;22.65;52.36
46922;BME280;44039;48.336;10.454;2022-07-29T15:10:21;95781.41;;;23.15;52.12
46922;BME280;44039;48.336;10.454;2022-07-29T15:13:10;95764.53;;;23.37;51.19
46922;BME280;44039;48.336;10.454;2022-07-29T15:15:57;95769.22;;;22.83;52.64